sensor_id;sensor_type;location;lat;lon;timestamp;temperature;humidity
16347;DHT22;8283;48.504;13.734;2023-06-14T00:01:25;18.20;44.40
16347;DHT22;8283;48.504;13.734;2023-06-14T00:04:10;18.20;44.60
16347;DHT22;8283;48.504;13.734;2023-06-14T00:06:55;18.10;44.50
16347;DHT22;8283;48.504;13.734;2023-06-14T00:09:40;18.10;44.80
16347;DHT22;8283;48.504;13.734;2023-06-14T00:12:24;18.00;44.70
16347;DHT22;8283;48.504;13.734;2023-06-14T00:15:09;18.00;44.80
16347;DHT22;8283;48.504;13.734;2023-06-14T00:17:53;17.90;44.80
16347;DHT22;8283;48.504;13.734;2023-06-14T00:20:38;17.90;44.80
16347;DHT22;8283;48.504;13.734;2023-06-14T00:23:23;17.80;44.90
16347;DHT22;8283;48.504;13.734;2023-06-14T00:26:07;17.70;44.90
16347;DHT22;8283;48.504;13.734;2023-06-14T00:28:52;17.70;44.90
16347;DHT22;8283;48.504;13.734;2023-06-14T00:31:37;17.70;45.00
16347;DHT22;8283;48.504;13.734;2023-06-14T00:34:21;17.60;45.00
16347;DHT22;8283;48.504;13.734;2023-06-14T00:37:05;17.60;45.10
16347;DHT22;8283;48.504;13.734;2023-06-14T00:39:50;17.50;45.20
16347;DHT22;8283;48.504;13.734;2023-06-14T00:42:37;17.50;45.30
16347;DHT22;8283;48.504;13.734;2023-06-14T00:45:22;17.40;45.40
16347;DHT22;8283;48.504;13.734;2023-06-14T00:48:07;17.40;45.60
16347;DHT22;8283;48.504;13.734;2023-06-14T00:50:53;17.40;45.70
16347;DHT22;8283;48.504;13.734;2023-06-14T00:53:39;17.30;45.70
16347;DHT22;8283;48.504;13.734;2023-06-14T00:56:23;17.30;45.90
16347;DHT22;8283;48.504;13.734;2023-06-14T00:59:09;17.20;45.90
16347;DHT22;8283;48.504;13.734;2023-06-14T01:01:55;17.20;45.80
16347;DHT22;8283;48.504;13.734;2023-06-14T01:04:40;17.50;46.00
16347;DHT22;8283;48.504;13.734;2023-06-14T01:08:13;17.10;45.90
16347;DHT22;8283;48.504;13.734;2023-06-14T01:11:16;17.10;47.50
16347;DHT22;8283;48.504;13.734;2023-06-14T01:14:02;17.10;47.20
16347;DHT22;8283;48.504;13.734;2023-06-14T01:16:47;17.00;46.10
16347;DHT22;8283;48.504;13.734;2023-06-14T01:19:39;16.90;46.00
16347;DHT22;8283;48.504;13.734;2023-06-14T01:22:27;16.90;46.20
16347;DHT22;8283;48.504;13.734;2023-06-14T01:25:13;16.90;46.70
16347;DHT22;8283;48.504;13.734;2023-06-14T01:28:04;16.80;46.50
16347;DHT22;8283;48.504;13.734;2023-06-14T01:30:54;16.80;47.20
16347;DHT22;8283;48.504;13.734;2023-06-14T01:33:39;16.80;46.70
16347;DHT22;8283;48.504;13.734;2023-06-14T01:36:26;16.70;46.70
16347;DHT22;8283;48.504;13.734;2023-06-14T01:39:15;16.70;47.00
16347;DHT22;8283;48.504;13.734;2023-06-14T01:42:01;16.70;46.80
16347;DHT22;8283;48.504;13.734;2023-06-14T01:44:46;16.70;46.90
16347;DHT22;8283;48.504;13.734;2023-06-14T01:47:32;16.60;46.90
16347;DHT22;8283;48.504;13.734;2023-06-14T01:50:19;16.60;46.90
16347;DHT22;8283;48.504;13.734;2023-06-14T01:53:07;16.60;47.30
16347;DHT22;8283;48.504;13.734;2023-06-14T01:55:55;16.60;47.50
16347;DHT22;8283;48.504;13.734;2023-06-14T01:58:39;16.50;47.10
16347;DHT22;8283;48.504;13.734;2023-06-14T02:01:24;16.50;47.20
16347;DHT22;8283;48.504;13.734;2023-06-14T02:04:09;16.40;47.20
16347;DHT22;8283;48.504;13.734;2023-06-14T02:06:55;16.40;47.40
16347;DHT22;8283;48.504;13.734;2023-06-14T02:09:43;16.40;47.50
16347;DHT22;8283;48.504;13.734;2023-06-14T02:12:28;16.40;47.90
16347;DHT22;8283;48.504;13.734;2023-06-14T02:15:14;16.30;47.60
16347;DHT22;8283;48.504;13.734;2023-06-14T02:18:03;16.30;47.70
16347;DHT22;8283;48.504;13.734;2023-06-14T02:20:47;16.30;47.80
16347;DHT22;8283;48.504;13.734;2023-06-14T02:23:31;16.30;48.00
16347;DHT22;8283;48.504;13.734;2023-06-14T02:26:17;16.20;48.00
16347;DHT22;8283;48.504;13.734;2023-06-14T02:29:01;16.20;48.10
16347;DHT22;8283;48.504;13.734;2023-06-14T02:31:46;16.20;48.10
16347;DHT22;8283;48.504;13.734;2023-06-14T02:34:32;16.10;48.10
16347;DHT22;8283;48.504;13.734;2023-06-14T02:37:17;16.20;48.20
16347;DHT22;8283;48.504;13.734;2023-06-14T02:40:01;16.10;48.30
16347;DHT22;8283;48.504;13.734;2023-06-14T02:42:45;16.10;48.30
16347;DHT22;8283;48.504;13.734;2023-06-14T02:45:30;16.10;48.40
16347;DHT22;8283;48.504;13.734;2023-06-14T02:48:14;16.10;48.50
16347;DHT22;8283;48.504;13.734;2023-06-14T02:50:58;16.10;48.50
16347;DHT22;8283;48.504;13.734;2023-06-14T02:53:42;16.00;48.50
16347;DHT22;8283;48.504;13.734;2023-06-14T02:56:29;16.00;48.60
16347;DHT22;8283;48.504;13.734;2023-06-14T02:59:14;15.90;48.80
16347;DHT22;8283;48.504;13.734;2023-06-14T03:01:59;15.90;48.80
16347;DHT22;8283;48.504;13.734;2023-06-14T03:04:44;15.90;49.00
16347;DHT22;8283;48.504;13.734;2023-06-14T03:07:33;15.80;49.00
16347;DHT22;8283;48.504;13.734;2023-06-14T03:10:19;15.80;49.10
16347;DHT22;8283;48.504;13.734;2023-06-14T03:13:04;15.80;49.20
16347;DHT22;8283;48.504;13.734;2023-06-14T03:15:49;15.80;49.20
16347;DHT22;8283;48.504;13.734;2023-06-14T03:18:35;15.80;49.40
16347;DHT22;8283;48.504;13.734;2023-06-14T03:21:21;15.70;49.40
16347;DHT22;8283;48.504;13.734;2023-06-14T03:24:06;15.70;49.40
16347;DHT22;8283;48.504;13.734;2023-06-14T03:26:53;15.70;49.60
16347;DHT22;8283;48.504;13.734;2023-06-14T03:29:38;15.70;49.60
16347;DHT22;8283;48.504;13.734;2023-06-14T03:32:23;15.70;49.60
16347;DHT22;8283;48.504;13.734;2023-06-14T03:35:07;15.70;49.70
16347;DHT22;8283;48.504;13.734;2023-06-14T03:37:52;15.70;49.80
16347;DHT22;8283;48.504;13.734;2023-06-14T03:40:37;15.70;49.90
16347;DHT22;8283;48.504;13.734;2023-06-14T03:43:24;15.70;50.00
16347;DHT22;8283;48.504;13.734;2023-06-14T03:46:09;15.70;50.10
16347;DHT22;8283;48.504;13.734;2023-06-14T03:48:53;15.70;50.30
16347;DHT22;8283;48.504;13.734;2023-06-14T03:51:38;15.70;50.40
16347;DHT22;8283;48.504;13.734;2023-06-14T03:54:22;15.70;50.50
16347;DHT22;8283;48.504;13.734;2023-06-14T03:57:08;15.70;50.50
16347;DHT22;8283;48.504;13.734;2023-06-14T03:59:53;15.70;51.10
16347;DHT22;8283;48.504;13.734;2023-06-14T04:02:37;15.70;51.00
16347;DHT22;8283;48.504;13.734;2023-06-14T04:05:22;15.80;50.90
16347;DHT22;8283;48.504;13.734;2023-06-14T04:08:11;15.80;51.00
16347;DHT22;8283;48.504;13.734;2023-06-14T04:10:58;15.80;51.20
16347;DHT22;8283;48.504;13.734;2023-06-14T04:13:42;15.80;51.30
16347;DHT22;8283;48.504;13.734;2023-06-14T04:16:27;15.90;51.40
16347;DHT22;8283;48.504;13.734;2023-06-14T04:19:12;15.90;51.30
16347;DHT22;8283;48.504;13.734;2023-06-14T04:21:58;16.00;51.40
16347;DHT22;8283;48.504;13.734;2023-06-14T04:24:45;15.90;51.40
16347;DHT22;8283;48.504;13.734;2023-06-14T04:27:30;15.90;51.30
16347;DHT22;8283;48.504;13.734;2023-06-14T04:30:18;16.00;51.40
16347;DHT22;8283;48.504;13.734;2023-06-14T04:33:08;16.00;51.40
16347;DHT22;8283;48.504;13.734;2023-06-14T04:35:53;16.10;51.60
16347;DHT22;8283;48.504;13.734;2023-06-14T04:38:40;16.10;51.60
16347;DHT22;8283;48.504;13.734;2023-06-14T04:41:26;16.10;51.60
16347;DHT22;8283;48.504;13.734;2023-06-14T04:44:15;16.10;51.70
16347;DHT22;8283;48.504;13.734;2023-06-14T04:47:03;16.20;51.80
16347;DHT22;8283;48.504;13.734;2023-06-14T04:49:48;16.20;51.90
16347;DHT22;8283;48.504;13.734;2023-06-14T04:52:34;16.20;52.00
16347;DHT22;8283;48.504;13.734;2023-06-14T04:55:19;16.20;52.00
16347;DHT22;8283;48.504;13.734;2023-06-14T04:58:04;16.30;52.10
16347;DHT22;8283;48.504;13.734;2023-06-14T05:00:49;16.30;52.00
16347;DHT22;8283;48.504;13.734;2023-06-14T05:03:33;16.40;52.20
16347;DHT22;8283;48.504;13.734;2023-06-14T05:06:18;16.40;52.30
16347;DHT22;8283;48.504;13.734;2023-06-14T05:09:03;16.40;52.40
16347;DHT22;8283;48.504;13.734;2023-06-14T05:11:48;16.50;52.50
16347;DHT22;8283;48.504;13.734;2023-06-14T05:14:32;16.60;52.70
16347;DHT22;8283;48.504;13.734;2023-06-14T05:17:17;16.60;52.60
16347;DHT22;8283;48.504;13.734;2023-06-14T05:20:02;16.60;52.70
16347;DHT22;8283;48.504;13.734;2023-06-14T05:22:46;16.70;53.00
16347;DHT22;8283;48.504;13.734;2023-06-14T05:25:32;16.80;53.10
16347;DHT22;8283;48.504;13.734;2023-06-14T05:28:17;16.90;53.50
16347;DHT22;8283;48.504;13.734;2023-06-14T05:31:01;17.00;53.80
16347;DHT22;8283;48.504;13.734;2023-06-14T05:33:46;17.10;53.80
16347;DHT22;8283;48.504;13.734;2023-06-14T05:36:30;17.30;54.00
16347;DHT22;8283;48.504;13.734;2023-06-14T05:39:15;17.50;54.20
16347;DHT22;8283;48.504;13.734;2023-06-14T05:42:00;17.70;54.60
16347;DHT22;8283;48.504;13.734;2023-06-14T05:44:44;17.90;54.30
16347;DHT22;8283;48.504;13.734;2023-06-14T05:47:28;18.10;54.30
16347;DHT22;8283;48.504;13.734;2023-06-14T05:50:12;18.30;54.20
16347;DHT22;8283;48.504;13.734;2023-06-14T05:52:56;18.50;54.30
16347;DHT22;8283;48.504;13.734;2023-06-14T05:55:40;18.70;54.10
16347;DHT22;8283;48.504;13.734;2023-06-14T05:58:24;18.90;54.00
16347;DHT22;8283;48.504;13.734;2023-06-14T06:01:09;19.20;53.90
16347;DHT22;8283;48.504;13.734;2023-06-14T06:03:53;19.40;53.80
16347;DHT22;8283;48.504;13.734;2023-06-14T06:06:38;19.60;53.70
16347;DHT22;8283;48.504;13.734;2023-06-14T06:09:23;19.90;53.70
16347;DHT22;8283;48.504;13.734;2023-06-14T06:12:07;20.10;53.60
16347;DHT22;8283;48.504;13.734;2023-06-14T06:14:52;20.40;53.50
16347;DHT22;8283;48.504;13.734;2023-06-14T06:17:36;20.60;53.30
16347;DHT22;8283;48.504;13.734;2023-06-14T06:20:21;20.90;53.20
16347;DHT22;8283;48.504;13.734;2023-06-14T06:23:11;21.10;53.20
16347;DHT22;8283;48.504;13.734;2023-06-14T06:25:56;21.30;53.10
16347;DHT22;8283;48.504;13.734;2023-06-14T06:28:40;21.50;53.00
16347;DHT22;8283;48.504;13.734;2023-06-14T06:31:25;21.90;52.80
16347;DHT22;8283;48.504;13.734;2023-06-14T06:34:11;22.10;52.40
16347;DHT22;8283;48.504;13.734;2023-06-14T06:36:55;22.40;52.60
16347;DHT22;8283;48.504;13.734;2023-06-14T06:39:40;22.60;52.30
16347;DHT22;8283;48.504;13.734;2023-06-14T06:42:24;22.90;52.00
16347;DHT22;8283;48.504;13.734;2023-06-14T06:45:09;23.10;51.80
16347;DHT22;8283;48.504;13.734;2023-06-14T06:47:53;23.30;51.70
16347;DHT22;8283;48.504;13.734;2023-06-14T06:50:39;23.50;51.70
16347;DHT22;8283;48.504;13.734;2023-06-14T06:53:24;23.80;51.40
16347;DHT22;8283;48.504;13.734;2023-06-14T06:56:08;24.00;51.50
16347;DHT22;8283;48.504;13.734;2023-06-14T06:58:52;24.30;51.90
16347;DHT22;8283;48.504;13.734;2023-06-14T07:01:37;24.50;51.40
16347;DHT22;8283;48.504;13.734;2023-06-14T07:04:21;24.80;51.50
16347;DHT22;8283;48.504;13.734;2023-06-14T07:07:05;25.10;51.30
16347;DHT22;8283;48.504;13.734;2023-06-14T07:09:50;25.40;51.40
16347;DHT22;8283;48.504;13.734;2023-06-14T07:12:34;25.60;51.40
16347;DHT22;8283;48.504;13.734;2023-06-14T07:15:23;26.00;51.00
16347;DHT22;8283;48.504;13.734;2023-06-14T07:18:07;26.30;50.70
16347;DHT22;8283;48.504;13.734;2023-06-14T07:20:53;26.50;50.10
16347;DHT22;8283;48.504;13.734;2023-06-14T07:23:38;26.80;50.20
16347;DHT22;8283;48.504;13.734;2023-06-14T07:26:22;27.00;50.00
16347;DHT22;8283;48.504;13.734;2023-06-14T07:29:07;27.30;50.10
16347;DHT22;8283;48.504;13.734;2023-06-14T07:31:52;27.50;50.10
16347;DHT22;8283;48.504;13.734;2023-06-14T07:34:36;27.80;50.00
16347;DHT22;8283;48.504;13.734;2023-06-14T07:37:20;28.10;49.80
16347;DHT22;8283;48.504;13.734;2023-06-14T07:40:05;28.40;49.60
16347;DHT22;8283;48.504;13.734;2023-06-14T07:42:51;28.70;49.60
16347;DHT22;8283;48.504;13.734;2023-06-14T07:45:36;29.00;49.00
16347;DHT22;8283;48.504;13.734;2023-06-14T07:48:21;29.30;48.40
16347;DHT22;8283;48.504;13.734;2023-06-14T07:51:05;29.60;48.20
16347;DHT22;8283;48.504;13.734;2023-06-14T07:53:50;29.90;48.00
16347;DHT22;8283;48.504;13.734;2023-06-14T07:56:34;30.20;47.70
16347;DHT22;8283;48.504;13.734;2023-06-14T07:59:19;30.40;47.30
16347;DHT22;8283;48.504;13.734;2023-06-14T08:02:04;30.70;47.10
16347;DHT22;8283;48.504;13.734;2023-06-14T08:04:49;30.90;46.70
16347;DHT22;8283;48.504;13.734;2023-06-14T08:07:33;31.20;46.50
16347;DHT22;8283;48.504;13.734;2023-06-14T08:10:18;31.50;46.20
16347;DHT22;8283;48.504;13.734;2023-06-14T08:13:02;31.70;46.30
16347;DHT22;8283;48.504;13.734;2023-06-14T08:15:46;31.90;45.70
16347;DHT22;8283;48.504;13.734;2023-06-14T08:18:30;32.20;45.40
16347;DHT22;8283;48.504;13.734;2023-06-14T08:21:15;32.30;44.90
16347;DHT22;8283;48.504;13.734;2023-06-14T08:23:59;32.50;44.70
16347;DHT22;8283;48.504;13.734;2023-06-14T08:26:44;32.70;44.40
16347;DHT22;8283;48.504;13.734;2023-06-14T08:29:28;33.00;44.20
16347;DHT22;8283;48.504;13.734;2023-06-14T08:32:14;33.10;43.70
16347;DHT22;8283;48.504;13.734;2023-06-14T08:34:59;33.40;44.00
16347;DHT22;8283;48.504;13.734;2023-06-14T08:37:43;33.70;43.70
16347;DHT22;8283;48.504;13.734;2023-06-14T08:40:30;33.90;43.40
16347;DHT22;8283;48.504;13.734;2023-06-14T08:43:14;34.20;42.50
16347;DHT22;8283;48.504;13.734;2023-06-14T08:46:02;34.40;41.60
16347;DHT22;8283;48.504;13.734;2023-06-14T08:48:48;34.50;41.20
16347;DHT22;8283;48.504;13.734;2023-06-14T08:51:35;34.60;41.30
16347;DHT22;8283;48.504;13.734;2023-06-14T08:54:20;34.70;40.70
16347;DHT22;8283;48.504;13.734;2023-06-14T08:57:05;34.90;40.80
16347;DHT22;8283;48.504;13.734;2023-06-14T08:59:51;35.00;39.90
16347;DHT22;8283;48.504;13.734;2023-06-14T09:02:39;35.00;38.90
16347;DHT22;8283;48.504;13.734;2023-06-14T09:05:27;34.90;38.50
16347;DHT22;8283;48.504;13.734;2023-06-14T09:08:12;34.70;38.30
16347;DHT22;8283;48.504;13.734;2023-06-14T09:10:57;34.60;37.60
16347;DHT22;8283;48.504;13.734;2023-06-14T09:13:42;34.40;38.10
16347;DHT22;8283;48.504;13.734;2023-06-14T09:16:26;34.30;38.40
16347;DHT22;8283;48.504;13.734;2023-06-14T09:19:23;34.10;36.60
16347;DHT22;8283;48.504;13.734;2023-06-14T09:22:08;34.10;37.50
16347;DHT22;8283;48.504;13.734;2023-06-14T09:24:55;34.10;38.20
16347;DHT22;8283;48.504;13.734;2023-06-14T09:27:40;34.00;37.70
16347;DHT22;8283;48.504;13.734;2023-06-14T09:30:25;34.00;37.70
16347;DHT22;8283;48.504;13.734;2023-06-14T09:33:09;34.00;37.20
16347;DHT22;8283;48.504;13.734;2023-06-14T09:35:57;33.90;37.70
16347;DHT22;8283;48.504;13.734;2023-06-14T09:38:41;34.10;36.90
16347;DHT22;8283;48.504;13.734;2023-06-14T09:41:38;34.10;37.50
16347;DHT22;8283;48.504;13.734;2023-06-14T09:44:25;34.30;37.10
16347;DHT22;8283;48.504;13.734;2023-06-14T09:47:12;34.40;37.40
16347;DHT22;8283;48.504;13.734;2023-06-14T09:49:57;34.60;37.80
16347;DHT22;8283;48.504;13.734;2023-06-14T09:52:43;35.00;38.70
16347;DHT22;8283;48.504;13.734;2023-06-14T09:55:31;35.30;37.30
16347;DHT22;8283;48.504;13.734;2023-06-14T09:58:20;35.70;38.00
16347;DHT22;8283;48.504;13.734;2023-06-14T10:01:08;36.10;37.40
16347;DHT22;8283;48.504;13.734;2023-06-14T10:04:02;36.40;36.00
16347;DHT22;8283;48.504;13.734;2023-06-14T10:06:47;36.60;34.50
16347;DHT22;8283;48.504;13.734;2023-06-14T10:09:33;36.70;35.30
16347;DHT22;8283;48.504;13.734;2023-06-14T10:12:19;36.50;34.40
16347;DHT22;8283;48.504;13.734;2023-06-14T10:15:09;36.40;33.70
16347;DHT22;8283;48.504;13.734;2023-06-14T10:18:01;36.10;32.70
16347;DHT22;8283;48.504;13.734;2023-06-14T10:23:37;35.30;32.90
16347;DHT22;8283;48.504;13.734;2023-06-14T10:26:25;35.00;33.30
16347;DHT22;8283;48.504;13.734;2023-06-14T10:29:10;34.90;34.30
16347;DHT22;8283;48.504;13.734;2023-06-14T10:31:59;34.80;34.70
16347;DHT22;8283;48.504;13.734;2023-06-14T10:34:44;34.90;33.90
16347;DHT22;8283;48.504;13.734;2023-06-14T10:37:28;34.90;34.40
16347;DHT22;8283;48.504;13.734;2023-06-14T10:40:30;34.90;34.10
16347;DHT22;8283;48.504;13.734;2023-06-14T10:43:22;34.80;32.00
16347;DHT22;8283;48.504;13.734;2023-06-14T10:46:19;34.60;33.40
16347;DHT22;8283;48.504;13.734;2023-06-14T10:49:07;34.40;33.00
16347;DHT22;8283;48.504;13.734;2023-06-14T10:51:57;34.30;34.00
16347;DHT22;8283;48.504;13.734;2023-06-14T10:57:54;34.10;33.80
16347;DHT22;8283;48.504;13.734;2023-06-14T11:00:44;34.10;33.90
16347;DHT22;8283;48.504;13.734;2023-06-14T11:03:43;34.00;34.50
16347;DHT22;8283;48.504;13.734;2023-06-14T11:06:50;34.10;34.30
16347;DHT22;8283;48.504;13.734;2023-06-14T11:12:39;34.70;35.20
16347;DHT22;8283;48.504;13.734;2023-06-14T11:15:30;35.30;35.50
16347;DHT22;8283;48.504;13.734;2023-06-14T11:18:15;35.80;35.60
16347;DHT22;8283;48.504;13.734;2023-06-14T11:21:01;36.30;35.40
16347;DHT22;8283;48.504;13.734;2023-06-14T11:23:52;36.80;34.80
16347;DHT22;8283;48.504;13.734;2023-06-14T11:26:39;37.30;34.20
16347;DHT22;8283;48.504;13.734;2023-06-14T11:29:24;37.80;34.70
16347;DHT22;8283;48.504;13.734;2023-06-14T11:32:08;38.20;34.10
16347;DHT22;8283;48.504;13.734;2023-06-14T11:34:57;38.60;33.60
16347;DHT22;8283;48.504;13.734;2023-06-14T11:37:43;38.80;33.10
16347;DHT22;8283;48.504;13.734;2023-06-14T11:40:28;38.80;32.10
16347;DHT22;8283;48.504;13.734;2023-06-14T11:43:13;38.70;31.50
16347;DHT22;8283;48.504;13.734;2023-06-14T11:45:58;38.40;31.30
16347;DHT22;8283;48.504;13.734;2023-06-14T11:48:43;38.20;30.40
16347;DHT22;8283;48.504;13.734;2023-06-14T11:51:27;37.90;30.70
16347;DHT22;8283;48.504;13.734;2023-06-14T11:54:12;37.60;30.90
16347;DHT22;8283;48.504;13.734;2023-06-14T11:56:56;37.30;31.30
16347;DHT22;8283;48.504;13.734;2023-06-14T11:59:40;37.10;31.20
16347;DHT22;8283;48.504;13.734;2023-06-14T12:02:25;37.00;30.90
16347;DHT22;8283;48.504;13.734;2023-06-14T12:05:12;36.70;30.50
16347;DHT22;8283;48.504;13.734;2023-06-14T12:08:03;36.50;30.70
16347;DHT22;8283;48.504;13.734;2023-06-14T12:10:52;36.20;30.70
16347;DHT22;8283;48.504;13.734;2023-06-14T12:13:40;35.90;30.50
16347;DHT22;8283;48.504;13.734;2023-06-14T12:16:33;35.60;31.00
16347;DHT22;8283;48.504;13.734;2023-06-14T12:19:18;35.30;31.60
16347;DHT22;8283;48.504;13.734;2023-06-14T12:22:04;35.10;31.50
16347;DHT22;8283;48.504;13.734;2023-06-14T12:24:49;35.00;31.80
16347;DHT22;8283;48.504;13.734;2023-06-14T12:27:33;34.90;31.70
16347;DHT22;8283;48.504;13.734;2023-06-14T12:30:18;34.80;31.90
16347;DHT22;8283;48.504;13.734;2023-06-14T12:33:02;34.70;31.80
16347;DHT22;8283;48.504;13.734;2023-06-14T12:35:47;34.60;31.50
16347;DHT22;8283;48.504;13.734;2023-06-14T12:38:32;34.50;31.90
16347;DHT22;8283;48.504;13.734;2023-06-14T12:41:17;34.50;32.30
16347;DHT22;8283;48.504;13.734;2023-06-14T12:44:02;34.60;33.10
16347;DHT22;8283;48.504;13.734;2023-06-14T12:46:48;34.90;33.30
16347;DHT22;8283;48.504;13.734;2023-06-14T12:49:35;35.20;33.50
16347;DHT22;8283;48.504;13.734;2023-06-14T12:52:19;35.60;33.80
16347;DHT22;8283;48.504;13.734;2023-06-14T12:55:04;36.00;33.30
16347;DHT22;8283;48.504;13.734;2023-06-14T12:57:49;36.20;33.00
16347;DHT22;8283;48.504;13.734;2023-06-14T13:00:34;36.40;32.60
16347;DHT22;8283;48.504;13.734;2023-06-14T13:03:19;36.50;32.90
16347;DHT22;8283;48.504;13.734;2023-06-14T13:06:04;36.50;31.80
16347;DHT22;8283;48.504;13.734;2023-06-14T13:08:49;36.40;31.60
16347;DHT22;8283;48.504;13.734;2023-06-14T13:11:34;36.30;31.40
16347;DHT22;8283;48.504;13.734;2023-06-14T13:14:18;36.10;31.20
16347;DHT22;8283;48.504;13.734;2023-06-14T13:17:03;36.00;31.30
16347;DHT22;8283;48.504;13.734;2023-06-14T13:19:47;35.70;31.50
16347;DHT22;8283;48.504;13.734;2023-06-14T13:22:31;35.60;32.00
16347;DHT22;8283;48.504;13.734;2023-06-14T13:25:15;35.40;32.00
16347;DHT22;8283;48.504;13.734;2023-06-14T13:28:00;35.20;32.30
16347;DHT22;8283;48.504;13.734;2023-06-14T13:30:44;35.00;32.40
16347;DHT22;8283;48.504;13.734;2023-06-14T13:33:29;34.90;33.00
16347;DHT22;8283;48.504;13.734;2023-06-14T13:36:13;34.80;33.30
16347;DHT22;8283;48.504;13.734;2023-06-14T13:38:58;34.60;33.10
16347;DHT22;8283;48.504;13.734;2023-06-14T13:41:42;34.40;33.10
16347;DHT22;8283;48.504;13.734;2023-06-14T13:44:27;34.20;33.10
16347;DHT22;8283;48.504;13.734;2023-06-14T13:47:11;34.00;33.10
16347;DHT22;8283;48.504;13.734;2023-06-14T13:49:56;33.80;32.60
16347;DHT22;8283;48.504;13.734;2023-06-14T13:52:41;33.60;32.80
16347;DHT22;8283;48.504;13.734;2023-06-14T13:55:25;33.50;33.40
16347;DHT22;8283;48.504;13.734;2023-06-14T13:58:10;33.40;34.20
16347;DHT22;8283;48.504;13.734;2023-06-14T14:00:54;33.40;34.60
16347;DHT22;8283;48.504;13.734;2023-06-14T14:03:38;33.40;34.80
16347;DHT22;8283;48.504;13.734;2023-06-14T14:06:22;33.40;35.30
16347;DHT22;8283;48.504;13.734;2023-06-14T14:09:08;33.60;35.70
16347;DHT22;8283;48.504;13.734;2023-06-14T14:11:52;33.70;36.30
16347;DHT22;8283;48.504;13.734;2023-06-14T14:14:36;33.90;35.90
16347;DHT22;8283;48.504;13.734;2023-06-14T14:17:21;34.10;36.00
16347;DHT22;8283;48.504;13.734;2023-06-14T14:20:06;34.30;36.10
16347;DHT22;8283;48.504;13.734;2023-06-14T14:22:51;34.40;36.00
16347;DHT22;8283;48.504;13.734;2023-06-14T14:25:35;34.50;35.70
16347;DHT22;8283;48.504;13.734;2023-06-14T14:28:19;34.70;34.60
16347;DHT22;8283;48.504;13.734;2023-06-14T14:31:04;34.70;32.70
16347;DHT22;8283;48.504;13.734;2023-06-14T14:33:49;34.50;32.50
16347;DHT22;8283;48.504;13.734;2023-06-14T14:36:33;34.30;32.70
16347;DHT22;8283;48.504;13.734;2023-06-14T14:39:20;34.00;32.90
16347;DHT22;8283;48.504;13.734;2023-06-14T14:42:05;33.80;33.10
16347;DHT22;8283;48.504;13.734;2023-06-14T14:44:50;33.70;33.40
16347;DHT22;8283;48.504;13.734;2023-06-14T14:47:34;33.70;33.00
16347;DHT22;8283;48.504;13.734;2023-06-14T14:50:19;33.60;33.10
16347;DHT22;8283;48.504;13.734;2023-06-14T14:53:04;33.50;33.60
16347;DHT22;8283;48.504;13.734;2023-06-14T14:55:49;33.40;33.90
16347;DHT22;8283;48.504;13.734;2023-06-14T14:58:33;33.40;33.90
16347;DHT22;8283;48.504;13.734;2023-06-14T15:01:18;33.40;34.40
16347;DHT22;8283;48.504;13.734;2023-06-14T15:04:03;33.60;34.80
16347;DHT22;8283;48.504;13.734;2023-06-14T15:06:47;33.70;34.70
16347;DHT22;8283;48.504;13.734;2023-06-14T15:09:31;33.80;34.70
16347;DHT22;8283;48.504;13.734;2023-06-14T15:12:16;33.90;34.60
16347;DHT22;8283;48.504;13.734;2023-06-14T15:15:00;33.90;34.50
16347;DHT22;8283;48.504;13.734;2023-06-14T15:17:45;34.10;34.60
16347;DHT22;8283;48.504;13.734;2023-06-14T15:20:29;34.10;34.50
16347;DHT22;8283;48.504;13.734;2023-06-14T15:23:13;34.20;34.30
16347;DHT22;8283;48.504;13.734;2023-06-14T15:26:03;34.20;34.10
16347;DHT22;8283;48.504;13.734;2023-06-14T15:28:48;34.20;33.60
16347;DHT22;8283;48.504;13.734;2023-06-14T15:31:32;34.10;33.70
16347;DHT22;8283;48.504;13.734;2023-06-14T15:34:17;34.00;33.80
16347;DHT22;8283;48.504;13.734;2023-06-14T15:37:01;33.90;34.00
16347;DHT22;8283;48.504;13.734;2023-06-14T15:39:46;33.80;34.00
16347;DHT22;8283;48.504;13.734;2023-06-14T15:42:31;33.70;34.00
16347;DHT22;8283;48.504;13.734;2023-06-14T15:45:15;33.60;34.00
16347;DHT22;8283;48.504;13.734;2023-06-14T15:48:00;33.60;33.90
16347;DHT22;8283;48.504;13.734;2023-06-14T15:50:44;33.40;33.50
16347;DHT22;8283;48.504;13.734;2023-06-14T15:53:30;33.30;33.30
16347;DHT22;8283;48.504;13.734;2023-06-14T15:56:14;33.30;33.50
16347;DHT22;8283;48.504;13.734;2023-06-14T15:58:59;33.10;33.60
16347;DHT22;8283;48.504;13.734;2023-06-14T16:01:43;33.10;33.80
16347;DHT22;8283;48.504;13.734;2023-06-14T16:04:28;33.10;34.00
16347;DHT22;8283;48.504;13.734;2023-06-14T16:07:14;33.00;34.30
16347;DHT22;8283;48.504;13.734;2023-06-14T16:09:58;33.00;34.40
16347;DHT22;8283;48.504;13.734;2023-06-14T16:12:42;33.00;34.60
16347;DHT22;8283;48.504;13.734;2023-06-14T16:15:27;33.00;34.70
16347;DHT22;8283;48.504;13.734;2023-06-14T16:18:11;33.00;34.40
16347;DHT22;8283;48.504;13.734;2023-06-14T16:20:56;33.00;34.10
16347;DHT22;8283;48.504;13.734;2023-06-14T16:23:41;32.90;34.50
16347;DHT22;8283;48.504;13.734;2023-06-14T16:26:25;32.80;34.70
16347;DHT22;8283;48.504;13.734;2023-06-14T16:29:11;32.80;34.60
16347;DHT22;8283;48.504;13.734;2023-06-14T16:31:55;32.70;34.50
16347;DHT22;8283;48.504;13.734;2023-06-14T16:34:40;32.60;34.50
16347;DHT22;8283;48.504;13.734;2023-06-14T16:37:24;32.50;34.70
16347;DHT22;8283;48.504;13.734;2023-06-14T16:40:09;32.40;34.70
16347;DHT22;8283;48.504;13.734;2023-06-14T16:42:53;32.30;34.50
16347;DHT22;8283;48.504;13.734;2023-06-14T16:45:37;32.10;34.50
16347;DHT22;8283;48.504;13.734;2023-06-14T16:48:22;32.00;34.90
16347;DHT22;8283;48.504;13.734;2023-06-14T16:51:06;31.90;34.90
16347;DHT22;8283;48.504;13.734;2023-06-14T16:53:50;31.90;35.40
16347;DHT22;8283;48.504;13.734;2023-06-14T16:56:35;31.70;35.20
16347;DHT22;8283;48.504;13.734;2023-06-14T16:59:20;31.50;35.00
16347;DHT22;8283;48.504;13.734;2023-06-14T17:02:05;31.60;35.50
16347;DHT22;8283;48.504;13.734;2023-06-14T17:04:49;31.40;35.10
16347;DHT22;8283;48.504;13.734;2023-06-14T17:07:33;31.30;35.00
16347;DHT22;8283;48.504;13.734;2023-06-14T17:10:18;31.10;35.20
16347;DHT22;8283;48.504;13.734;2023-06-14T17:13:02;31.00;35.30
16347;DHT22;8283;48.504;13.734;2023-06-14T17:15:47;30.90;35.30
16347;DHT22;8283;48.504;13.734;2023-06-14T17:18:31;30.60;35.30
16347;DHT22;8283;48.504;13.734;2023-06-14T17:21:15;30.50;35.50
16347;DHT22;8283;48.504;13.734;2023-06-14T17:24:00;30.40;35.50
16347;DHT22;8283;48.504;13.734;2023-06-14T17:26:45;30.30;35.80
16347;DHT22;8283;48.504;13.734;2023-06-14T17:29:29;30.20;36.00
16347;DHT22;8283;48.504;13.734;2023-06-14T17:32:13;30.00;35.60
16347;DHT22;8283;48.504;13.734;2023-06-14T17:34:57;29.90;35.70